KOVE/OVE METAR and TAF weather

Enter ICAO airport designator
Station Type Date Time Source
KOVE METAR 2020/04/04 04:53 UTC NOAA

KOVE 040453Z AUTO 07004KT 10SM CLR 12/M01 A2993 RMK AO2 SLP137 T01171006


Station Type Date Time Source
KOVE Decoded METAR 2020/04/04 04:53 UTC NOAA

OROVILLE MUNICIPAL AIRPORT, CA, United States (KOVE) 39-30N 121-37W 58M
Apr 04, 2020 - 12:53 AM EDT / 2020.04.04 0453 UTC
Wind: from the ENE (070 degrees) at 5 MPH (4 KT):0
Visibility: 10 mile(s):0
Sky conditions: clear
Temperature: 53.1 F (11.7 C)
Dew Point: 30.9 F (-0.6 C)
Relative Humidity: 42%
Pressure (altimeter): 29.93 in. Hg (1013 hPa)
ob: KOVE 040453Z AUTO 07004KT 10SM CLR 12/M01 A2993 RMK AO2 SLP137 T01171006
cycle: 5

Station Type Date Time Source
KOVE TAF UTC NOAA

Error!

Example: see airport list